createdAt,value
2022-11-02T00:01:44.363Z,13.32
2022-11-02T00:04:11.258Z,3.15
2022-11-02T00:06:37.871Z,11.75
2022-11-02T00:09:04.619Z,10.85
2022-11-02T00:11:33.579Z,8.52
2022-11-02T00:14:00.085Z,12.45
2022-11-02T00:16:26.575Z,10.10
2022-11-02T00:18:57.011Z,7.55
2022-11-02T00:21:25.757Z,12.65
2022-11-02T00:23:53.074Z,11.38
2022-11-02T00:26:19.754Z,10.25
2022-11-02T00:28:46.471Z,8.18
2022-11-02T00:31:12.874Z,8.65
2022-11-02T00:33:39.340Z,12.77
2022-11-02T00:36:05.996Z,6.43
2022-11-02T00:38:32.539Z,17.60
2022-11-02T00:40:59.475Z,10.25
2022-11-02T00:43:25.970Z,6.72
2022-11-02T00:45:52.572Z,17.70
2022-11-02T00:48:19.083Z,13.20
2022-11-02T00:50:45.528Z,8.18
2022-11-02T00:53:12.077Z,5.93
2022-11-02T00:55:38.439Z,6.65
2022-11-02T00:58:05.145Z,8.10
2022-11-02T01:00:32.188Z,15.43
2022-11-02T01:03:02.480Z,10.80
2022-11-02T01:05:29.774Z,7.78
2022-11-02T01:07:57.006Z,9.13
2022-11-02T01:10:25.123Z,10.10
2022-11-02T01:12:51.600Z,12.20
2022-11-02T01:15:18.167Z,12.68
2022-11-02T01:17:44.716Z,5.07
2022-11-02T01:20:11.374Z,5.97
2022-11-02T01:22:37.907Z,7.32
2022-11-02T01:25:04.720Z,8.15
2022-11-02T01:27:32.297Z,12.75
2022-11-02T01:29:58.739Z,9.75
2022-11-02T01:32:25.199Z,9.63
2022-11-02T01:34:51.859Z,6.90
2022-11-02T01:37:18.205Z,7.05
2022-11-02T01:39:44.744Z,9.65
2022-11-02T01:42:22.458Z,8.10
2022-11-02T01:44:49.058Z,8.23
2022-11-02T01:47:25.017Z,8.20
2022-11-02T01:49:57.085Z,10.77
2022-11-02T01:52:35.542Z,7.60
2022-11-02T01:55:13.487Z,14.82
2022-11-02T01:57:43.586Z,14.25
2022-11-02T02:00:13.670Z,18.35
2022-11-02T02:02:47.420Z,7.90
2022-11-02T02:05:16.271Z,9.93
2022-11-02T02:07:43.974Z,10.05
2022-11-02T02:10:11.316Z,7.90
2022-11-02T02:12:41.195Z,7.65
2022-11-02T02:15:08.630Z,11.68
2022-11-02T02:17:45.355Z,7.65
2022-11-02T02:20:24.021Z,9.65
2022-11-02T02:23:19.875Z,7.05
2022-11-02T02:26:11.382Z,4.35
2022-11-02T02:28:43.907Z,11.70
2022-11-02T02:31:31.303Z,8.35
2022-11-02T02:34:17.498Z,7.22
2022-11-02T02:37:03.799Z,9.30
2022-11-02T02:39:57.555Z,7.38
2022-11-02T02:42:31.872Z,9.65
2022-11-02T02:45:14.032Z,8.80
2022-11-02T02:47:50.877Z,6.70
2022-11-02T02:50:22.352Z,13.20
2022-11-02T02:52:50.902Z,9.70
2022-11-02T02:55:22.386Z,7.45
2022-11-02T02:57:51.657Z,10.77
2022-11-02T03:00:18.791Z,13.20
2022-11-02T03:03:00.742Z,8.02
2022-11-02T03:05:34.053Z,9.02
2022-11-02T03:08:13.555Z,13.07
2022-11-02T03:10:56.903Z,12.07
2022-11-02T03:13:35.219Z,12.30
2022-11-02T03:16:11.375Z,13.05
2022-11-02T03:19:00.179Z,9.98
2022-11-02T03:21:42.136Z,9.23
2022-11-02T03:24:47.207Z,10.20
2022-11-02T03:27:23.286Z,5.47
2022-11-02T03:30:14.559Z,9.73
2022-11-02T03:33:01.575Z,12.50
2022-11-02T03:35:44.834Z,6.05
2022-11-02T03:38:46.873Z,12.50
2022-11-02T03:41:15.431Z,8.93
2022-11-02T03:43:43.163Z,9.55
2022-11-02T03:46:11.431Z,9.02
2022-11-02T03:48:46.459Z,9.20
2022-11-02T03:51:15.925Z,4.90
2022-11-02T03:53:49.375Z,6.57
2022-11-02T03:56:35.630Z,12.75
2022-11-02T03:59:02.014Z,13.00
2022-11-02T04:01:30.640Z,12.65
2022-11-02T04:03:57.201Z,11.55
2022-11-02T04:06:25.425Z,9.40
2022-11-02T04:08:52.181Z,10.73
2022-11-02T04:11:37.561Z,13.60
2022-11-02T04:14:22.419Z,9.27
2022-11-02T04:16:48.862Z,8.93
2022-11-02T04:19:27.471Z,11.90
2022-11-02T04:22:17.366Z,11.45
2022-11-02T04:25:02.248Z,12.55
2022-11-02T04:27:28.789Z,10.18
2022-11-02T04:29:55.384Z,9.05
2022-11-02T04:32:40.462Z,9.88
2022-11-02T04:35:08.323Z,5.00
2022-11-02T04:38:00.720Z,6.70
2022-11-02T04:40:28.030Z,9.63
2022-11-02T04:42:54.444Z,10.57
2022-11-02T04:45:21.103Z,9.43
2022-11-02T04:47:47.571Z,5.60
2022-11-02T04:50:14.143Z,3.88
2022-11-02T04:52:40.639Z,7.60
2022-11-02T04:55:07.931Z,6.28
2022-11-02T04:57:34.337Z,10.63
2022-11-02T05:00:01.229Z,8.20
2022-11-02T05:02:27.882Z,7.13
2022-11-02T05:04:54.540Z,8.00
2022-11-02T05:07:20.987Z,12.95
2022-11-02T05:09:47.512Z,7.10
2022-11-02T05:12:13.891Z,6.68
2022-11-02T05:14:40.273Z,7.60
2022-11-02T05:17:06.674Z,11.85
2022-11-02T05:19:33.264Z,8.38
2022-11-02T05:21:59.715Z,3.47
2022-11-02T05:24:26.423Z,3.90
2022-11-02T05:26:54.194Z,9.75
2022-11-02T05:29:20.833Z,13.55
2022-11-02T05:31:47.210Z,9.93
2022-11-02T05:34:13.765Z,12.38
2022-11-02T05:36:40.143Z,9.07
2022-11-02T05:39:06.666Z,6.10
2022-11-02T05:41:33.106Z,6.70
2022-11-02T05:43:59.672Z,7.22
2022-11-02T05:46:26.329Z,9.00
2022-11-02T05:48:53.076Z,8.57
2022-11-02T05:51:19.457Z,6.20
2022-11-02T05:53:45.948Z,10.13
2022-11-02T05:56:14.595Z,8.45
2022-11-02T05:58:41.470Z,3.97
2022-11-02T06:01:08.863Z,12.25
2022-11-02T06:03:36.189Z,6.43
2022-11-02T06:06:07.726Z,9.90
2022-11-02T06:08:36.080Z,12.48
2022-11-02T06:11:07.943Z,14.38
2022-11-02T06:13:34.989Z,10.38
2022-11-02T06:16:03.393Z,9.32
2022-11-02T06:18:34.107Z,6.55
2022-11-02T06:21:00.670Z,4.40
2022-11-02T06:23:29.683Z,7.10
2022-11-02T06:25:58.132Z,6.63
2022-11-02T06:28:32.005Z,8.10
2022-11-02T06:30:58.507Z,6.10
2022-11-02T06:33:26.167Z,10.38
2022-11-02T06:35:54.208Z,7.57
2022-11-02T06:38:21.404Z,7.07
2022-11-02T06:40:58.927Z,10.13
2022-11-02T06:43:26.473Z,6.93
2022-11-02T06:45:58.994Z,7.60
2022-11-02T06:48:34.882Z,4.50
2022-11-02T06:51:02.959Z,5.65
2022-11-02T06:53:29.890Z,9.23
2022-11-02T06:55:57.692Z,6.63
2022-11-02T06:58:25.135Z,9.70
2022-11-02T07:01:01.396Z,5.45
2022-11-02T07:03:28.929Z,10.38
2022-11-02T07:05:55.992Z,6.18
2022-11-02T07:08:22.705Z,6.55
2022-11-02T07:10:50.236Z,7.43
2022-11-02T07:13:16.832Z,8.23
2022-11-02T07:15:43.453Z,5.07
2022-11-02T07:18:10.060Z,6.95
2022-11-02T07:20:38.354Z,7.75
2022-11-02T07:23:05.915Z,8.50
2022-11-02T07:25:33.410Z,7.85
2022-11-02T07:28:01.835Z,7.32
2022-11-02T07:30:29.928Z,8.25
2022-11-02T07:32:58.807Z,7.10
2022-11-02T07:35:26.714Z,6.93
2022-11-02T07:38:05.972Z,7.63
2022-11-02T07:40:34.859Z,7.72
2022-11-02T07:43:03.082Z,7.15
2022-11-02T07:45:29.987Z,6.60
2022-11-02T07:47:56.494Z,4.82
2022-11-02T07:50:25.415Z,8.82
2022-11-02T07:52:54.248Z,11.27
2022-11-02T07:55:23.293Z,10.15
2022-11-02T07:58:04.525Z,12.45
2022-11-02T08:00:37.700Z,10.05
2022-11-02T08:03:06.393Z,14.07
2022-11-02T08:05:38.958Z,5.53
2022-11-02T08:08:14.461Z,10.57
2022-11-02T08:10:41.758Z,8.57
2022-11-02T08:13:09.785Z,8.70
2022-11-02T08:15:37.095Z,11.98
2022-11-02T08:18:08.308Z,9.05
2022-11-02T08:20:36.425Z,6.30
2022-11-02T08:23:03.937Z,15.30
2022-11-02T08:25:30.888Z,12.57
2022-11-02T08:27:59.185Z,9.43
2022-11-02T08:30:27.379Z,15.38
2022-11-02T08:32:56.746Z,4.97
2022-11-02T08:35:24.342Z,11.13
2022-11-02T08:37:54.997Z,9.45
2022-11-02T08:40:21.694Z,6.70
2022-11-02T08:42:48.339Z,11.43
2022-11-02T08:45:14.867Z,14.30
2022-11-02T08:47:42.164Z,9.75
2022-11-02T08:50:09.771Z,14.63
2022-11-02T08:52:40.517Z,11.38
2022-11-02T08:55:07.868Z,8.88
2022-11-02T08:57:47.527Z,10.93
2022-11-02T09:00:14.318Z,10.80
2022-11-02T09:02:40.978Z,8.07
2022-11-02T09:05:08.016Z,7.50
2022-11-02T09:07:34.560Z,11.15
2022-11-02T09:10:00.983Z,7.75
2022-11-02T09:12:27.366Z,10.40
2022-11-02T09:14:53.865Z,9.15
2022-11-02T09:17:20.424Z,8.30
2022-11-02T09:19:46.883Z,6.72
2022-11-02T09:22:13.296Z,9.60
2022-11-02T09:24:40.222Z,9.23
2022-11-02T09:27:06.648Z,6.05
2022-11-02T09:29:33.482Z,6.35
2022-11-02T09:31:59.884Z,14.07
2022-11-02T09:34:26.326Z,11.60
2022-11-02T09:36:52.727Z,5.97
2022-11-02T09:39:20.539Z,14.55
2022-11-02T09:42:18.004Z,8.82
2022-11-02T09:44:53.816Z,11.10
2022-11-02T09:50:22.824Z,21.02
2022-11-02T09:52:59.003Z,14.60
2022-11-02T09:55:32.107Z,9.02
2022-11-02T09:58:12.415Z,7.85
2022-11-02T10:00:41.513Z,6.68
2022-11-02T10:03:28.425Z,5.75
2022-11-02T10:06:08.358Z,6.45
2022-11-02T10:08:47.595Z,7.97
2022-11-02T10:11:28.047Z,9.65
2022-11-02T10:13:57.434Z,6.35
2022-11-02T10:16:38.094Z,7.88
2022-11-02T10:19:13.887Z,9.60
2022-11-02T10:21:44.925Z,4.72
2022-11-02T10:24:37.118Z,6.32
2022-11-02T10:27:14.484Z,6.20
2022-11-02T10:29:53.061Z,5.68
2022-11-02T10:32:19.562Z,6.28
2022-11-02T10:34:58.482Z,7.80
2022-11-02T10:37:42.679Z,5.35
2022-11-02T10:40:35.316Z,5.72
2022-11-02T10:43:34.197Z,11.60
2022-11-02T10:46:32.297Z,8.40
2022-11-02T10:49:02.521Z,10.88
2022-11-02T10:51:30.493Z,3.70
2022-11-02T10:53:56.973Z,11.10
2022-11-02T10:56:29.141Z,8.68
2022-11-02T10:59:18.311Z,7.85
2022-11-02T11:02:10.332Z,6.93
2022-11-02T11:04:36.701Z,6.13
2022-11-02T11:07:21.287Z,5.57
2022-11-02T11:09:57.614Z,8.07
2022-11-02T11:12:38.272Z,7.65
2022-11-02T11:20:40.988Z,11.00
2022-11-02T11:23:09.509Z,7.07
2022-11-02T11:25:36.110Z,8.07
2022-11-02T11:28:03.036Z,8.80
2022-11-02T11:30:58.919Z,5.65
2022-11-02T11:33:21.192Z,10.52
2022-11-02T11:35:49.949Z,6.90
2022-11-02T11:38:20.281Z,12.98
2022-11-02T11:40:53.740Z,6.15
2022-11-02T11:43:24.524Z,11.07
2022-11-02T11:46:13.079Z,7.22
2022-11-02T11:48:40.796Z,5.90
2022-11-02T11:51:30.401Z,6.05
2022-11-02T11:54:24.096Z,5.13
2022-11-02T11:56:52.846Z,8.00
2022-11-02T11:59:20.291Z,8.05
2022-11-02T12:01:47.360Z,7.82
2022-11-02T12:04:27.265Z,11.32
2022-11-02T12:07:06.190Z,5.85
2022-11-02T12:09:47.309Z,10.07
2022-11-02T12:12:25.819Z,10.73
2022-11-02T12:15:25.438Z,7.05
2022-11-02T12:18:12.776Z,7.30
2022-11-02T12:20:56.439Z,7.40
2022-11-02T12:23:25.840Z,9.15
2022-11-02T12:26:00.267Z,4.72
2022-11-02T12:28:43.359Z,7.07
2022-11-02T12:31:12.751Z,6.20
2022-11-02T12:34:21.075Z,6.43
2022-11-02T12:37:41.146Z,6.15
2022-11-02T12:40:17.293Z,8.57
2022-11-02T12:43:11.139Z,4.53
2022-11-02T12:45:49.964Z,9.30
2022-11-02T12:48:31.031Z,6.85
2022-11-02T12:51:03.102Z,9.82
2022-11-02T12:53:48.927Z,3.78
2022-11-02T12:56:23.194Z,3.53
2022-11-02T12:58:49.900Z,10.67
2022-11-02T13:01:27.243Z,6.47
2022-11-02T13:04:27.883Z,3.25
2022-11-02T13:07:29.591Z,7.88
2022-11-02T13:10:20.452Z,5.97
2022-11-02T13:12:52.030Z,4.80
2022-11-02T13:15:24.491Z,4.60
2022-11-02T13:17:54.046Z,5.78
2022-11-02T13:20:27.365Z,6.40
2022-11-02T13:23:03.539Z,6.15
2022-11-02T13:25:33.221Z,7.53
2022-11-02T13:28:06.177Z,5.10
2022-11-02T13:30:33.731Z,5.93
2022-11-02T13:33:08.621Z,7.00
2022-11-02T13:38:27.805Z,6.43
2022-11-02T13:41:00.159Z,8.15
2022-11-02T13:43:32.875Z,8.98
2022-11-02T13:46:24.327Z,12.73
2022-11-02T13:48:55.634Z,6.25
2022-11-02T13:51:28.075Z,5.85
2022-11-02T13:54:00.948Z,10.38
2022-11-02T13:56:29.345Z,4.25
2022-11-02T13:59:09.221Z,13.43
2022-11-02T14:01:40.718Z,4.10
2022-11-02T14:04:10.464Z,9.25
2022-11-02T14:06:48.573Z,10.02
2022-11-02T14:09:33.834Z,4.22
2022-11-02T14:12:22.019Z,9.80
2022-11-02T14:15:13.553Z,7.68
2022-11-02T14:17:56.252Z,9.45
2022-11-02T14:20:40.903Z,5.32
2022-11-02T14:23:14.247Z,6.23
2022-11-02T14:25:51.021Z,6.88
2022-11-02T14:28:25.598Z,9.43
2022-11-02T14:30:58.279Z,17.33
2022-11-02T14:33:49.413Z,13.77
2022-11-02T14:36:15.902Z,13.13
2022-11-02T14:39:04.713Z,9.20
2022-11-02T14:42:06.823Z,8.57
2022-11-02T14:44:51.712Z,7.30
2022-11-02T14:47:19.025Z,9.05
2022-11-02T14:49:56.038Z,9.18
2022-11-02T14:52:32.880Z,7.53
2022-11-02T14:55:06.993Z,6.28
2022-11-02T14:57:40.422Z,6.95
2022-11-02T15:00:21.013Z,7.72
2022-11-02T15:02:48.640Z,9.30
2022-11-02T15:05:31.572Z,5.90
2022-11-02T15:08:06.655Z,9.82
2022-11-02T15:10:33.092Z,6.70
2022-11-02T15:13:18.337Z,14.18
2022-11-02T15:16:12.899Z,6.85
2022-11-02T15:18:40.582Z,8.10
2022-11-02T15:21:12.890Z,10.32
2022-11-02T15:24:19.762Z,8.57
2022-11-02T15:26:52.299Z,5.28
2022-11-02T15:29:36.844Z,5.43
2022-11-02T15:32:07.107Z,12.77
2022-11-02T15:34:40.511Z,4.45
2022-11-02T15:37:08.713Z,11.77
2022-11-02T15:39:35.680Z,9.50
2022-11-02T15:42:03.860Z,8.25
2022-11-02T15:44:51.753Z,6.97
2022-11-02T15:47:31.857Z,6.55
2022-11-02T15:50:30.639Z,5.88
2022-11-02T15:53:28.843Z,6.88
2022-11-02T15:56:16.043Z,4.50
2022-11-02T15:59:24.063Z,7.72
2022-11-02T16:02:05.717Z,5.85
2022-11-02T16:04:35.064Z,4.35
2022-11-02T16:07:06.945Z,3.50
2022-11-02T16:09:38.499Z,7.47
2022-11-02T16:12:20.079Z,7.45
2022-11-02T16:14:57.634Z,6.50
2022-11-02T16:17:26.306Z,8.70
2022-11-02T16:20:08.528Z,7.68
2022-11-02T16:22:35.804Z,11.80
2022-11-02T16:25:10.896Z,6.55
2022-11-02T16:27:38.822Z,4.20
2022-11-02T16:30:06.077Z,6.70
2022-11-02T16:32:32.756Z,5.68
2022-11-02T16:35:01.041Z,3.17
2022-11-02T16:37:27.671Z,7.80
2022-11-02T16:39:54.342Z,6.35
2022-11-02T16:42:25.139Z,5.07
2022-11-02T16:45:01.113Z,9.52
2022-11-02T16:47:41.582Z,5.93
2022-11-02T16:50:24.992Z,5.35
2022-11-02T16:52:56.106Z,3.33
2022-11-02T16:55:40.822Z,4.05
2022-11-02T16:58:14.996Z,6.77
2022-11-02T17:00:54.149Z,8.17
2022-11-02T17:03:24.689Z,7.78
2022-11-02T17:05:51.358Z,12.05
2022-11-02T17:08:33.050Z,12.40
2022-11-02T17:11:02.033Z,10.65
2022-11-02T17:13:34.519Z,6.88
2022-11-02T17:16:08.560Z,9.30
2022-11-02T17:18:36.459Z,13.18
2022-11-02T17:21:22.502Z,53.80
2022-11-02T17:23:50.174Z,96.80
2022-11-02T17:26:24.972Z,213.48
2022-11-02T17:28:58.541Z,113.45
2022-11-02T17:31:34.608Z,42.60
2022-11-02T17:34:08.194Z,28.00
2022-11-02T17:36:45.397Z,13.88
2022-11-02T17:39:16.753Z,12.38
2022-11-02T17:42:03.446Z,7.57
2022-11-02T17:44:29.876Z,12.20
2022-11-02T17:46:56.382Z,13.30
2022-11-02T17:49:22.810Z,8.48
2022-11-02T17:51:49.428Z,8.02
2022-11-02T17:54:16.084Z,7.65
2022-11-02T17:56:42.603Z,7.78
2022-11-02T17:59:09.372Z,6.55
2022-11-02T18:01:36.004Z,7.90
2022-11-02T18:04:02.451Z,9.88
2022-11-02T18:06:29.747Z,8.80
2022-11-02T18:09:11.757Z,10.23
2022-11-02T18:11:38.293Z,5.55
2022-11-02T18:14:05.342Z,6.22
2022-11-02T18:16:32.251Z,9.27
2022-11-02T18:18:58.666Z,4.97
2022-11-02T18:21:25.113Z,9.63
2022-11-02T18:23:51.501Z,5.82
2022-11-02T18:26:18.012Z,6.68
2022-11-02T18:28:44.653Z,10.30
2022-11-02T18:31:11.846Z,8.30
2022-11-02T18:33:38.348Z,10.82
2022-11-02T18:36:09.748Z,7.82
2022-11-02T18:38:37.031Z,8.13
2022-11-02T18:41:28.667Z,5.55
2022-11-02T18:44:03.842Z,5.57
2022-11-02T18:46:32.893Z,11.98
2022-11-02T18:49:00.034Z,7.22
2022-11-02T18:51:27.008Z,7.95
2022-11-02T18:54:01.302Z,5.28
2022-11-02T18:56:28.131Z,17.23
2022-11-02T18:58:55.865Z,10.82
2022-11-02T19:01:24.399Z,12.77
2022-11-02T19:03:58.006Z,9.85
2022-11-02T19:06:45.622Z,6.85
2022-11-02T19:09:20.793Z,11.25
2022-11-02T19:12:21.899Z,6.43
2022-11-02T19:14:52.647Z,9.70
2022-11-02T19:17:19.054Z,13.45
2022-11-02T19:19:46.562Z,11.63
2022-11-02T19:22:14.270Z,9.23
2022-11-02T19:24:41.444Z,6.80
2022-11-02T19:27:13.643Z,13.57
2022-11-02T19:29:40.635Z,13.75
2022-11-02T19:32:07.127Z,10.05
2022-11-02T19:34:34.319Z,12.75
2022-11-02T19:37:00.796Z,12.32
2022-11-02T19:39:27.406Z,14.85
2022-11-02T19:41:54.272Z,10.65
2022-11-02T19:44:21.322Z,10.05
2022-11-02T19:46:47.908Z,24.88
2022-11-02T19:49:14.434Z,11.00
2022-11-02T19:51:41.069Z,9.95
2022-11-02T19:54:07.823Z,9.65
2022-11-02T19:56:36.025Z,21.33
2022-11-02T19:59:03.109Z,14.85
2022-11-02T20:01:32.306Z,7.85
2022-11-02T20:03:59.383Z,7.72
2022-11-02T20:06:34.039Z,5.40
2022-11-02T20:09:01.785Z,12.77
2022-11-02T20:11:28.696Z,6.32
2022-11-02T20:14:00.455Z,11.43
2022-11-02T20:16:27.776Z,5.85
2022-11-02T20:18:55.765Z,14.13
2022-11-02T20:21:31.055Z,8.25
2022-11-02T20:23:59.631Z,9.20
2022-11-02T20:26:34.785Z,5.68
2022-11-02T20:31:31.553Z,9.70
2022-11-02T20:34:01.507Z,9.20
2022-11-02T20:36:28.512Z,8.38
2022-11-02T20:38:56.256Z,8.68
2022-11-02T20:41:24.294Z,10.10
2022-11-02T20:43:54.783Z,8.88
2022-11-02T20:46:42.595Z,6.53
2022-11-02T20:49:20.919Z,8.18
2022-11-02T20:51:52.772Z,12.40
2022-11-02T20:54:20.342Z,5.93
2022-11-02T20:56:47.461Z,6.95
2022-11-02T20:59:14.687Z,6.22
2022-11-02T21:01:41.336Z,7.68
2022-11-02T21:04:08.094Z,9.13
2022-11-02T21:06:34.503Z,8.10
2022-11-02T21:09:09.013Z,11.00
2022-11-02T21:11:57.575Z,15.13
2022-11-02T21:14:24.504Z,11.35
2022-11-02T21:16:50.980Z,8.23
2022-11-02T21:19:17.414Z,10.27
2022-11-02T21:21:43.799Z,16.02
2022-11-02T21:24:10.540Z,11.60
2022-11-02T21:26:36.903Z,8.57
2022-11-02T21:29:03.936Z,7.22
2022-11-02T21:31:30.354Z,7.85
2022-11-02T21:33:56.707Z,11.75
2022-11-02T21:36:23.279Z,6.82
2022-11-02T21:38:49.713Z,8.77
2022-11-02T21:41:21.278Z,5.85
2022-11-02T21:43:51.612Z,9.95
2022-11-02T21:46:19.595Z,8.23
2022-11-02T21:48:46.330Z,6.38
2022-11-02T21:51:15.029Z,5.30
2022-11-02T21:53:44.006Z,9.27
2022-11-02T21:56:13.070Z,6.40
2022-11-02T21:58:44.677Z,11.65
2022-11-02T22:01:34.499Z,7.10
2022-11-02T22:04:01.297Z,8.25
2022-11-02T22:06:31.232Z,10.20
2022-11-02T22:08:59.794Z,7.88
2022-11-02T22:11:29.636Z,7.68
2022-11-02T22:13:58.919Z,8.35
2022-11-02T22:16:31.935Z,8.63
2022-11-02T22:19:00.375Z,8.43
2022-11-02T22:21:30.695Z,9.38
2022-11-02T22:23:57.744Z,20.58
2022-11-02T22:26:26.942Z,11.68
2022-11-02T22:28:54.301Z,9.93
2022-11-02T22:31:26.940Z,11.15
2022-11-02T22:33:55.607Z,16.30
2022-11-02T22:36:24.521Z,13.35
2022-11-02T22:38:53.428Z,14.98
2022-11-02T22:41:30.939Z,10.23
2022-11-02T22:44:03.190Z,10.70
2022-11-02T22:46:31.329Z,9.75
2022-11-02T22:48:59.382Z,10.63
2022-11-02T22:51:28.321Z,13.68
2022-11-02T22:53:55.439Z,10.68
2022-11-02T22:56:23.459Z,10.27
2022-11-02T22:58:50.558Z,8.88
2022-11-02T23:01:21.807Z,4.63
2022-11-02T23:03:49.492Z,19.02
2022-11-02T23:06:16.951Z,6.53
2022-11-02T23:08:45.753Z,10.02
2022-11-02T23:11:23.360Z,11.48
2022-11-02T23:14:25.516Z,9.07
2022-11-02T23:16:52.103Z,7.55
2022-11-02T23:19:30.833Z,11.48
2022-11-02T23:22:19.264Z,11.75
2022-11-02T23:25:05.668Z,10.07
2022-11-02T23:27:33.815Z,10.93
2022-11-02T23:30:19.319Z,8.68
2022-11-02T23:32:46.864Z,9.55
2022-11-02T23:35:31.946Z,16.05
2022-11-02T23:38:04.157Z,9.15
2022-11-02T23:40:31.605Z,16.27
2022-11-02T23:42:58.387Z,6.72
2022-11-02T23:45:24.947Z,13.38
2022-11-02T23:47:57.186Z,9.57
2022-11-02T23:50:45.401Z,10.52
2022-11-02T23:53:32.879Z,9.45
2022-11-02T23:56:18.239Z,16.17
2022-11-02T23:58:45.461Z,12.23
